sensor_id;sensor_type;location;lat;lon;timestamp;pressure;altitude;pressure_sealevel;temperature;humidity
66398;BME280;54877;51.504;3.894;2023-02-19T10:02:52;102585.34;;;15.32;61.44
66398;BME280;54877;51.504;3.894;2023-02-19T10:05:19;102583.38;;;15.77;62.72
66398;BME280;54877;51.504;3.894;2023-02-19T10:07:48;102576.38;;;16.34;62.91
66398;BME280;54877;51.504;3.894;2023-02-19T10:10:26;102576.22;;;16.76;62.65
66398;BME280;54877;51.504;3.894;2023-02-19T10:12:54;102574.44;;;17.12;62.26
66398;BME280;54877;51.504;3.894;2023-02-19T10:15:31;102570.38;;;17.39;62.23
66398;BME280;54877;51.504;3.894;2023-02-19T10:18:02;102584.28;;;17.65;62.18
66398;BME280;54877;51.504;3.894;2023-02-19T10:20:29;102592.13;;;17.85;62.07
66398;BME280;54877;51.504;3.894;2023-02-19T10:23:00;102597.56;;;18.00;62.08
66398;BME280;54877;51.504;3.894;2023-02-19T10:25:28;102606.56;;;18.15;61.90
66398;BME280;54877;51.504;3.894;2023-02-19T10:27:56;102609.53;;;18.26;61.86
66398;BME280;54877;51.504;3.894;2023-02-19T10:30:32;102609.84;;;18.37;61.89
66398;BME280;54877;51.504;3.894;2023-02-19T10:35:37;102618.81;;;18.53;61.71
66398;BME280;54877;51.504;3.894;2023-02-19T10:38:16;102621.16;;;18.59;61.66
66398;BME280;54877;51.504;3.894;2023-02-19T10:40:43;102620.81;;;18.65;61.69
66398;BME280;54877;51.504;3.894;2023-02-19T10:43:15;102624.88;;;18.72;61.73
66398;BME280;54877;51.504;3.894;2023-02-19T10:45:47;102620.22;;;18.76;61.75
66398;BME280;54877;51.504;3.894;2023-02-19T10:48:21;102634.34;;;18.80;61.76
66398;BME280;54877;51.504;3.894;2023-02-19T10:50:50;102627.84;;;18.84;61.65
66398;BME280;54877;51.504;3.894;2023-02-19T10:53:21;102629.41;;;18.88;61.64
66398;BME280;54877;51.504;3.894;2023-02-19T10:55:48;102626.56;;;18.91;61.54
66398;BME280;54877;51.504;3.894;2023-02-19T10:58:31;102636.09;;;18.96;61.50
66398;BME280;54877;51.504;3.894;2023-02-19T11:03:46;102646.72;;;18.98;61.61
66398;BME280;54877;51.504;3.894;2023-02-19T11:06:17;102641.28;;;18.99;61.67
66398;BME280;54877;51.504;3.894;2023-02-19T11:08:52;102646.56;;;19.01;61.77
66398;BME280;54877;51.504;3.894;2023-02-19T11:11:23;102647.31;;;19.03;61.61
66398;BME280;54877;51.504;3.894;2023-02-19T11:14:13;102656.09;;;19.06;61.59
66398;BME280;54877;51.504;3.894;2023-02-19T11:16:43;102667.53;;;19.10;61.59
66398;BME280;54877;51.504;3.894;2023-02-19T11:21:50;102668.06;;;19.16;61.57
66398;BME280;54877;51.504;3.894;2023-02-19T11:27:04;102645.34;;;19.22;61.54
66398;BME280;54877;51.504;3.894;2023-02-19T11:29:31;102651.41;;;19.25;61.50
66398;BME280;54877;51.504;3.894;2023-02-19T11:32:15;102644.97;;;19.28;61.50
66398;BME280;54877;51.504;3.894;2023-02-19T11:34:43;102636.75;;;19.31;61.46
66398;BME280;54877;51.504;3.894;2023-02-19T11:37:10;102652.28;;;19.26;57.81
66398;BME280;54877;51.504;3.894;2023-02-19T11:39:42;102638.69;;;19.13;54.34
66398;BME280;54877;51.504;3.894;2023-02-19T11:54:09;102638.50;;;18.69;53.91
66398;BME280;54877;51.504;3.894;2023-02-19T11:56:35;102635.44;;;18.75;53.91
66398;BME280;54877;51.504;3.894;2023-02-19T12:02:03;102644.44;;;18.59;53.83
66398;BME280;54877;51.504;3.894;2023-02-19T12:08:00;102648.25;;;18.38;54.19
66398;BME280;54877;51.504;3.894;2023-02-19T12:13:45;102636.19;;;18.29;54.38
66398;BME280;54877;51.504;3.894;2023-02-19T12:19:05;102656.13;;;18.41;54.41
66398;BME280;54877;51.504;3.894;2023-02-19T12:21:59;102671.91;;;18.47;54.30
66398;BME280;54877;51.504;3.894;2023-02-19T12:30:19;102695.66;;;18.54;53.81
66398;BME280;54877;51.504;3.894;2023-02-19T12:39:00;102692.03;;;18.55;53.76
66398;BME280;54877;51.504;3.894;2023-02-19T12:41:43;102697.84;;;18.46;53.87
66398;BME280;54877;51.504;3.894;2023-02-19T12:44:23;102697.84;;;18.46;53.86
66398;BME280;54877;51.504;3.894;2023-02-19T12:46:58;102706.66;;;18.50;53.89
66398;BME280;54877;51.504;3.894;2023-02-19T12:49:32;102711.19;;;18.48;53.95
66398;BME280;54877;51.504;3.894;2023-02-19T12:52:07;102710.97;;;18.52;53.82
66398;BME280;54877;51.504;3.894;2023-02-19T12:54:40;102715.84;;;18.44;53.86
66398;BME280;54877;51.504;3.894;2023-02-19T12:57:09;102713.88;;;18.48;53.96
66398;BME280;54877;51.504;3.894;2023-02-19T12:59:45;102721.13;;;18.46;53.71
66398;BME280;54877;51.504;3.894;2023-02-19T13:04:48;102705.28;;;18.41;53.99
66398;BME280;54877;51.504;3.894;2023-02-19T16:52:16;102771.63;;;13.16;56.61
66398;BME280;54877;51.504;3.894;2023-02-19T16:54:42;102779.25;;;12.95;57.33
66398;BME280;54877;51.504;3.894;2023-02-19T16:57:07;102777.97;;;12.79;57.79
66398;BME280;54877;51.504;3.894;2023-02-19T16:59:32;102788.06;;;12.67;58.25
66398;BME280;54877;51.504;3.894;2023-02-19T17:01:58;102790.06;;;12.59;58.72
66398;BME280;54877;51.504;3.894;2023-02-19T17:04:23;102790.19;;;12.54;58.85
66398;BME280;54877;51.504;3.894;2023-02-19T17:06:49;102791.13;;;12.53;58.78
66398;BME280;54877;51.504;3.894;2023-02-19T17:09:14;102786.03;;;12.44;59.20
66398;BME280;54877;51.504;3.894;2023-02-19T17:11:39;102778.16;;;12.41;59.40
66398;BME280;54877;51.504;3.894;2023-02-19T17:14:05;102788.03;;;12.36;59.69
66398;BME280;54877;51.504;3.894;2023-02-19T17:16:31;102792.66;;;12.28;59.73
66398;BME280;54877;51.504;3.894;2023-02-19T17:19:16;102793.72;;;12.21;60.06
66398;BME280;54877;51.504;3.894;2023-02-19T17:21:44;102792.06;;;12.17;60.52
66398;BME280;54877;51.504;3.894;2023-02-19T17:24:10;102796.00;;;12.01;60.98
66398;BME280;54877;51.504;3.894;2023-02-19T17:26:36;102795.75;;;12.10;60.87
66398;BME280;54877;51.504;3.894;2023-02-19T17:29:02;102795.00;;;12.06;61.09
66398;BME280;54877;51.504;3.894;2023-02-19T17:31:30;102792.28;;;12.08;61.12
66398;BME280;54877;51.504;3.894;2023-02-19T17:33:56;102782.19;;;11.87;61.71
66398;BME280;54877;51.504;3.894;2023-02-19T17:36:24;102786.50;;;11.92;61.65
66398;BME280;54877;51.504;3.894;2023-02-19T17:38:53;102786.50;;;11.91;61.51
66398;BME280;54877;51.504;3.894;2023-02-19T17:41:18;102791.81;;;11.91;61.34
66398;BME280;54877;51.504;3.894;2023-02-19T17:43:43;102796.44;;;11.83;61.77
66398;BME280;54877;51.504;3.894;2023-02-19T17:46:13;102790.25;;;11.84;61.74
66398;BME280;54877;51.504;3.894;2023-02-19T17:48:39;102791.13;;;11.83;61.51
66398;BME280;54877;51.504;3.894;2023-02-19T17:51:05;102792.88;;;11.84;61.62
66398;BME280;54877;51.504;3.894;2023-02-19T17:53:30;102789.63;;;11.72;61.93
66398;BME280;54877;51.504;3.894;2023-02-19T17:55:56;102776.28;;;11.75;61.75
66398;BME280;54877;51.504;3.894;2023-02-19T17:58:21;102778.06;;;11.75;61.63
66398;BME280;54877;51.504;3.894;2023-02-19T18:00:47;102795.72;;;11.76;61.56
66398;BME280;54877;51.504;3.894;2023-02-19T18:03:12;102794.94;;;11.72;61.57
66398;BME280;54877;51.504;3.894;2023-02-19T18:05:38;102802.06;;;11.70;61.38
66398;BME280;54877;51.504;3.894;2023-02-19T18:08:03;102795.03;;;11.66;61.60
66398;BME280;54877;51.504;3.894;2023-02-19T18:10:28;102811.84;;;11.65;61.71
66398;BME280;54877;51.504;3.894;2023-02-19T18:12:54;102819.91;;;11.61;61.55
66398;BME280;54877;51.504;3.894;2023-02-19T18:15:21;102800.75;;;11.48;61.92
66398;BME280;54877;51.504;3.894;2023-02-19T18:17:48;102788.41;;;11.47;61.85
66398;BME280;54877;51.504;3.894;2023-02-19T18:20:35;102784.78;;;11.51;61.66
66398;BME280;54877;51.504;3.894;2023-02-19T18:23:00;102783.84;;;11.52;61.67
66398;BME280;54877;51.504;3.894;2023-02-19T18:25:25;102787.44;;;11.51;61.56
66398;BME280;54877;51.504;3.894;2023-02-19T18:27:50;102783.91;;;11.49;61.59
66398;BME280;54877;51.504;3.894;2023-02-19T18:30:17;102776.91;;;11.47;61.25
66398;BME280;54877;51.504;3.894;2023-02-19T18:32:44;102792.03;;;11.43;61.72
66398;BME280;54877;51.504;3.894;2023-02-19T18:35:14;102801.91;;;11.35;61.96
66398;BME280;54877;51.504;3.894;2023-02-19T18:37:41;102784.34;;;11.31;62.04
66398;BME280;54877;51.504;3.894;2023-02-19T18:40:06;102781.00;;;11.23;62.24
66398;BME280;54877;51.504;3.894;2023-02-19T18:42:32;102778.28;;;11.26;62.31
66398;BME280;54877;51.504;3.894;2023-02-19T18:44:58;102777.34;;;11.29;62.09
66398;BME280;54877;51.504;3.894;2023-02-19T18:47:24;102775.50;;;11.32;62.06
66398;BME280;54877;51.504;3.894;2023-02-19T18:49:51;102772.84;;;11.31;62.20
66398;BME280;54877;51.504;3.894;2023-02-19T18:52:18;102782.69;;;11.26;62.39
66398;BME280;54877;51.504;3.894;2023-02-19T18:54:46;102777.34;;;11.29;62.29
66398;BME280;54877;51.504;3.894;2023-02-19T18:57:13;102777.47;;;11.23;62.72
66398;BME280;54877;51.504;3.894;2023-02-19T18:59:39;102781.88;;;11.22;62.59
66398;BME280;54877;51.504;3.894;2023-02-19T19:02:05;102779.22;;;11.24;62.75
66398;BME280;54877;51.504;3.894;2023-02-19T19:04:33;102774.84;;;11.21;62.76
66398;BME280;54877;51.504;3.894;2023-02-19T19:07:00;102768.75;;;11.16;62.80
66398;BME280;54877;51.504;3.894;2023-02-19T19:09:26;102773.22;;;11.14;62.81
66398;BME280;54877;51.504;3.894;2023-02-19T19:11:52;102768.81;;;11.13;62.84
66398;BME280;54877;51.504;3.894;2023-02-19T19:14:17;102759.25;;;11.06;63.28
66398;BME280;54877;51.504;3.894;2023-02-19T19:16:43;102761.91;;;11.06;63.08
66398;BME280;54877;51.504;3.894;2023-02-19T19:19:08;102765.59;;;10.99;63.49
66398;BME280;54877;51.504;3.894;2023-02-19T19:21:34;102775.28;;;11.00;63.10
66398;BME280;54877;51.504;3.894;2023-02-19T19:24:00;102773.47;;;11.02;63.00
66398;BME280;54877;51.504;3.894;2023-02-19T19:26:26;102774.63;;;10.90;63.35
66398;BME280;54877;51.504;3.894;2023-02-19T19:28:52;102771.94;;;10.92;63.04
66398;BME280;54877;51.504;3.894;2023-02-19T19:31:17;102764.88;;;10.91;63.31
66398;BME280;54877;51.504;3.894;2023-02-19T19:33:44;102766.75;;;10.86;63.28
66398;BME280;54877;51.504;3.894;2023-02-19T19:36:11;102757.97;;;10.84;63.28
66398;BME280;54877;51.504;3.894;2023-02-19T19:38:37;102752.84;;;10.75;63.43
66398;BME280;54877;51.504;3.894;2023-02-19T19:41:03;102766.97;;;10.75;63.33
66398;BME280;54877;51.504;3.894;2023-02-19T19:43:29;102763.44;;;10.75;63.40
66398;BME280;54877;51.504;3.894;2023-02-19T19:45:56;102776.63;;;10.78;63.41
66398;BME280;54877;51.504;3.894;2023-02-19T19:48:22;102775.03;;;10.69;63.39
66398;BME280;54877;51.504;3.894;2023-02-19T19:50:49;102779.53;;;10.66;63.53
66398;BME280;54877;51.504;3.894;2023-02-19T19:53:14;102783.91;;;10.68;63.55
66398;BME280;54877;51.504;3.894;2023-02-19T19:55:40;102783.00;;;10.68;63.23
66398;BME280;54877;51.504;3.894;2023-02-19T19:58:05;102788.31;;;10.68;63.12
66398;BME280;54877;51.504;3.894;2023-02-19T20:00:30;102773.28;;;10.68;63.09
66398;BME280;54877;51.504;3.894;2023-02-19T20:02:56;102779.47;;;10.69;62.90
66398;BME280;54877;51.504;3.894;2023-02-19T20:05:22;102772.47;;;10.65;63.33
66398;BME280;54877;51.504;3.894;2023-02-19T20:07:47;102777.72;;;10.68;62.89
66398;BME280;54877;51.504;3.894;2023-02-19T20:10:14;102775.91;;;10.70;62.56
66398;BME280;54877;51.504;3.894;2023-02-19T20:12:41;102767.13;;;10.68;63.01
66398;BME280;54877;51.504;3.894;2023-02-19T20:15:07;102774.25;;;10.64;62.69
66398;BME280;54877;51.504;3.894;2023-02-19T20:17:33;102765.41;;;10.63;62.85
66398;BME280;54877;51.504;3.894;2023-02-19T20:19:58;102765.56;;;10.57;63.14
66398;BME280;54877;51.504;3.894;2023-02-19T20:22:23;102776.22;;;10.53;62.89
66398;BME280;54877;51.504;3.894;2023-02-19T20:24:49;102777.94;;;10.55;63.00
66398;BME280;54877;51.504;3.894;2023-02-19T20:27:16;102771.97;;;10.46;63.09
66398;BME280;54877;51.504;3.894;2023-02-19T20:29:43;102768.34;;;10.50;63.12
66398;BME280;54877;51.504;3.894;2023-02-19T20:32:09;102771.91;;;10.47;62.79
66398;BME280;54877;51.504;3.894;2023-02-19T20:34:35;102773.75;;;10.44;63.31
66398;BME280;54877;51.504;3.894;2023-02-19T20:37:02;102779.13;;;10.39;62.99
66398;BME280;54877;51.504;3.894;2023-02-19T20:39:28;102771.19;;;10.41;62.75
66398;BME280;54877;51.504;3.894;2023-02-19T20:41:54;102774.66;;;10.41;62.75
66398;BME280;54877;51.504;3.894;2023-02-19T20:44:20;102770.25;;;10.43;62.76
66398;BME280;54877;51.504;3.894;2023-02-19T20:46:46;102772.88;;;10.43;62.72
66398;BME280;54877;51.504;3.894;2023-02-19T20:49:14;102775.50;;;10.46;62.51
66398;BME280;54877;51.504;3.894;2023-02-19T20:54:17;102764.94;;;10.43;62.49
66398;BME280;54877;51.504;3.894;2023-02-19T20:56:47;102767.59;;;10.43;62.43
66398;BME280;54877;51.504;3.894;2023-02-19T20:59:15;102767.69;;;10.37;62.53
66398;BME280;54877;51.504;3.894;2023-02-19T21:01:42;102766.78;;;10.40;62.25
66398;BME280;54877;51.504;3.894;2023-02-19T21:04:08;102755.28;;;10.39;62.31
66398;BME280;54877;51.504;3.894;2023-02-19T21:06:33;102746.56;;;10.34;62.08
66398;BME280;54877;51.504;3.894;2023-02-19T21:08:58;102734.16;;;10.36;62.39
66398;BME280;54877;51.504;3.894;2023-02-19T21:11:24;102730.84;;;10.27;62.25
66398;BME280;54877;51.504;3.894;2023-02-19T21:13:49;102729.97;;;10.25;62.47
66398;BME280;54877;51.504;3.894;2023-02-19T21:16:15;102726.69;;;10.09;62.75
66398;BME280;54877;51.504;3.894;2023-02-19T21:18:40;102718.75;;;10.09;62.75
66398;BME280;54877;51.504;3.894;2023-02-19T21:21:06;102729.41;;;10.06;63.04
66398;BME280;54877;51.504;3.894;2023-02-19T21:23:31;102734.69;;;10.06;63.01
66398;BME280;54877;51.504;3.894;2023-02-19T21:25:56;102741.69;;;10.10;62.86
66398;BME280;54877;51.504;3.894;2023-02-19T21:28:22;102746.09;;;10.10;62.58
66398;BME280;54877;51.504;3.894;2023-02-19T21:30:48;102761.09;;;10.09;62.40
66398;BME280;54877;51.504;3.894;2023-02-19T21:33:14;102759.28;;;10.11;62.48
66398;BME280;54877;51.504;3.894;2023-02-19T21:35:40;102752.25;;;10.12;62.17
66398;BME280;54877;51.504;3.894;2023-02-19T21:38:06;102743.56;;;10.05;62.67
66398;BME280;54877;51.504;3.894;2023-02-19T21:40:31;102747.03;;;10.05;62.40
66398;BME280;54877;51.504;3.894;2023-02-19T21:42:58;102745.56;;;9.91;62.50
66398;BME280;54877;51.504;3.894;2023-02-19T21:45:23;102748.84;;;10.05;62.44
66398;BME280;54877;51.504;3.894;2023-02-19T21:47:49;102742.63;;;10.06;62.46
66398;BME280;54877;51.504;3.894;2023-02-19T21:50:19;102741.75;;;10.07;62.66
66398;BME280;54877;51.504;3.894;2023-02-19T21:52:45;102738.31;;;10.02;62.63
66398;BME280;54877;51.504;3.894;2023-02-19T21:55:11;102733.00;;;10.02;62.29
66398;BME280;54877;51.504;3.894;2023-02-19T21:57:37;102727.00;;;9.92;62.40
66398;BME280;54877;51.504;3.894;2023-02-19T22:00:03;102728.66;;;9.98;62.36
66398;BME280;54877;51.504;3.894;2023-02-19T22:02:29;102732.34;;;9.89;62.85
66398;BME280;54877;51.504;3.894;2023-02-19T22:04:55;102739.44;;;9.86;62.75
66398;BME280;54877;51.504;3.894;2023-02-19T22:07:21;102732.34;;;9.89;62.71
66398;BME280;54877;51.504;3.894;2023-02-19T22:09:48;102734.09;;;9.89;63.13
66398;BME280;54877;51.504;3.894;2023-02-19T22:12:15;102735.06;;;9.85;63.18
66398;BME280;54877;51.504;3.894;2023-02-19T22:14:41;102736.88;;;9.81;63.15
66398;BME280;54877;51.504;3.894;2023-02-19T22:17:07;102737.81;;;9.79;63.49
66398;BME280;54877;51.504;3.894;2023-02-19T22:19:32;102732.50;;;9.79;63.61
66398;BME280;54877;51.504;3.894;2023-02-19T22:21:57;102728.13;;;9.78;63.58
66398;BME280;54877;51.504;3.894;2023-02-19T22:24:24;102734.28;;;9.78;63.28
66398;BME280;54877;51.504;3.894;2023-02-19T22:26:49;102726.44;;;9.74;63.62
66398;BME280;54877;51.504;3.894;2023-02-19T22:29:20;102730.88;;;9.72;63.85
66398;BME280;54877;51.504;3.894;2023-02-19T22:31:45;102722.13;;;9.68;63.54
66398;BME280;54877;51.504;3.894;2023-02-19T22:34:10;102723.78;;;9.72;63.85
66398;BME280;54877;51.504;3.894;2023-02-19T22:36:36;102713.31;;;9.68;64.03
66398;BME280;54877;51.504;3.894;2023-02-19T22:39:02;102709.03;;;9.61;64.52
66398;BME280;54877;51.504;3.894;2023-02-19T22:41:29;102717.97;;;9.52;64.93
66398;BME280;54877;51.504;3.894;2023-02-19T22:43:54;102714.44;;;9.52;64.90
66398;BME280;54877;51.504;3.894;2023-02-19T22:46:25;102718.94;;;9.47;65.17
66398;BME280;54877;51.504;3.894;2023-02-19T22:48:53;102716.38;;;9.40;65.38
66398;BME280;54877;51.504;3.894;2023-02-19T22:51:19;102715.38;;;9.48;64.89
66398;BME280;54877;51.504;3.894;2023-02-19T22:53:47;102714.66;;;9.36;65.86
66398;BME280;54877;51.504;3.894;2023-02-19T22:56:20;102707.50;;;9.44;65.47
66398;BME280;54877;51.504;3.894;2023-02-19T22:58:46;102706.66;;;9.42;65.42
66398;BME280;54877;51.504;3.894;2023-02-19T23:01:12;102712.84;;;9.40;65.62
66398;BME280;54877;51.504;3.894;2023-02-19T23:03:49;102711.19;;;9.34;65.93
66398;BME280;54877;51.504;3.894;2023-02-19T23:06:17;102707.75;;;9.29;66.52
66398;BME280;54877;51.504;3.894;2023-02-19T23:08:47;102706.97;;;9.20;66.70
66398;BME280;54877;51.504;3.894;2023-02-19T23:11:12;102711.41;;;9.19;67.09
66398;BME280;54877;51.504;3.894;2023-02-19T23:13:45;102699.13;;;9.15;66.87
66398;BME280;54877;51.504;3.894;2023-02-19T23:16:10;102697.31;;;9.19;66.95
66398;BME280;54877;51.504;3.894;2023-02-19T23:18:35;102705.19;;;9.25;67.07
66398;BME280;54877;51.504;3.894;2023-02-19T23:21:01;102700.72;;;9.25;67.07
66398;BME280;54877;51.504;3.894;2023-02-19T23:23:26;102693.69;;;9.27;66.71
66398;BME280;54877;51.504;3.894;2023-02-19T23:25:51;102691.88;;;9.28;66.75
66398;BME280;54877;51.504;3.894;2023-02-19T23:28:17;102679.63;;;9.22;67.22
66398;BME280;54877;51.504;3.894;2023-02-19T23:30:42;102667.41;;;9.15;67.61
66398;BME280;54877;51.504;3.894;2023-02-19T23:33:08;102667.41;;;9.15;67.64
66398;BME280;54877;51.504;3.894;2023-02-19T23:35:33;102665.75;;;9.11;67.48
66398;BME280;54877;51.504;3.894;2023-02-19T23:37:58;102654.19;;;9.17;67.60
66398;BME280;54877;51.504;3.894;2023-02-19T23:40:25;102648.13;;;9.10;67.81
66398;BME280;54877;51.504;3.894;2023-02-19T23:42:50;102660.56;;;9.02;68.23
66398;BME280;54877;51.504;3.894;2023-02-19T23:45:16;102661.50;;;9.00;68.26
66398;BME280;54877;51.504;3.894;2023-02-19T23:47:41;102653.00;;;8.76;68.91
66398;BME280;54877;51.504;3.894;2023-02-19T23:50:06;102664.22;;;8.92;68.90
66398;BME280;54877;51.504;3.894;2023-02-19T23:52:32;102662.50;;;8.91;68.81
66398;BME280;54877;51.504;3.894;2023-02-19T23:54:57;102661.66;;;8.89;68.97
66398;BME280;54877;51.504;3.894;2023-02-19T23:57:23;102662.41;;;8.97;68.67
66398;BME280;54877;51.504;3.894;2023-02-19T23:59:48;102655.28;;;9.02;68.68
